sensor_id;sensor_type;location;lat;lon;timestamp;pressure;altitude;pressure_sealevel;temperature;humidity
6345;BME280;3205;42.666;23.264;2023-03-18T00:00:12;94746.03;;;-0.27;100.00
6345;BME280;3205;42.666;23.264;2023-03-18T00:02:41;94745.78;;;-0.31;100.00
6345;BME280;3205;42.666;23.264;2023-03-18T00:05:08;94736.94;;;-0.35;100.00
6345;BME280;3205;42.666;23.264;2023-03-18T00:07:36;94741.06;;;-0.34;100.00
6345;BME280;3205;42.666;23.264;2023-03-18T00:10:04;94743.16;;;-0.36;100.00
6345;BME280;3205;42.666;23.264;2023-03-18T00:12:30;94729.44;;;-0.31;100.00
6345;BME280;3205;42.666;23.264;2023-03-18T00:14:57;94733.56;;;-0.35;100.00
6345;BME280;3205;42.666;23.264;2023-03-18T00:17:24;94727.31;;;-0.34;100.00
6345;BME280;3205;42.666;23.264;2023-03-18T00:19:50;94725.53;;;-0.29;100.00
6345;BME280;3205;42.666;23.264;2023-03-18T00:22:16;94720.56;;;-0.35;100.00
6345;BME280;3205;42.666;23.264;2023-03-18T00:24:43;94725.50;;;-0.34;100.00
6345;BME280;3205;42.666;23.264;2023-03-18T00:27:10;94715.09;;;-0.34;100.00
6345;BME280;3205;42.666;23.264;2023-03-18T00:29:37;94717.22;;;-0.31;100.00
6345;BME280;3205;42.666;23.264;2023-03-18T00:32:04;94717.47;;;-0.27;100.00
6345;BME280;3205;42.666;23.264;2023-03-18T00:34:31;94708.13;;;-0.23;100.00
6345;BME280;3205;42.666;23.264;2023-03-18T00:36:57;94711.78;;;-0.19;100.00
6345;BME280;3205;42.666;23.264;2023-03-18T00:39:25;94715.16;;;-0.24;100.00
6345;BME280;3205;42.666;23.264;2023-03-18T00:41:53;94711.25;;;-0.21;100.00
6345;BME280;3205;42.666;23.264;2023-03-18T00:44:21;94701.88;;;-0.37;100.00
6345;BME280;3205;42.666;23.264;2023-03-18T00:46:47;94691.75;;;-0.49;100.00
6345;BME280;3205;42.666;23.264;2023-03-18T00:49:13;94705.47;;;-0.53;100.00
6345;BME280;3205;42.666;23.264;2023-03-18T00:51:39;94694.84;;;-0.47;100.00
6345;BME280;3205;42.666;23.264;2023-03-18T00:54:08;94691.47;;;-0.52;100.00
6345;BME280;3205;42.666;23.264;2023-03-18T00:56:35;94689.09;;;-0.59;100.00
6345;BME280;3205;42.666;23.264;2023-03-18T00:59:02;94687.53;;;-0.60;100.00
6345;BME280;3205;42.666;23.264;2023-03-18T01:01:29;94684.94;;;-0.60;100.00
6345;BME280;3205;42.666;23.264;2023-03-18T01:03:56;94675.88;;;-0.62;100.00
6345;BME280;3205;42.666;23.264;2023-03-18T01:06:25;94678.19;;;-0.61;100.00
6345;BME280;3205;42.666;23.264;2023-03-18T01:08:53;94678.19;;;-0.61;100.00
6345;BME280;3205;42.666;23.264;2023-03-18T01:11:19;94671.75;;;-0.58;100.00
6345;BME280;3205;42.666;23.264;2023-03-18T01:13:46;94677.16;;;-0.65;100.00
6345;BME280;3205;42.666;23.264;2023-03-18T01:16:13;94664.94;;;-0.69;100.00
6345;BME280;3205;42.666;23.264;2023-03-18T01:18:40;94676.63;;;-0.67;100.00
6345;BME280;3205;42.666;23.264;2023-03-18T01:21:07;94661.84;;;-0.66;100.00
6345;BME280;3205;42.666;23.264;2023-03-18T01:23:34;94666.50;;;-0.68;100.00
6345;BME280;3205;42.666;23.264;2023-03-18T01:26:00;94667.81;;;-0.71;100.00
6345;BME280;3205;42.666;23.264;2023-03-18T01:28:27;94660.28;;;-0.72;100.00
6345;BME280;3205;42.666;23.264;2023-03-18T01:30:53;94670.13;;;-0.69;100.00
6345;BME280;3205;42.666;23.264;2023-03-18T01:33:20;94659.00;;;-0.70;100.00
6345;BME280;3205;42.666;23.264;2023-03-18T01:35:52;94662.09;;;-0.68;100.00
6345;BME280;3205;42.666;23.264;2023-03-18T01:38:20;94660.78;;;-0.70;100.00
6345;BME280;3205;42.666;23.264;2023-03-18T01:40:46;94659.75;;;-0.69;100.00
6345;BME280;3205;42.666;23.264;2023-03-18T01:43:14;94659.22;;;-0.81;100.00
6345;BME280;3205;42.666;23.264;2023-03-18T01:45:43;94661.28;;;-0.78;100.00
6345;BME280;3205;42.666;23.264;2023-03-18T01:48:13;94660.50;;;-0.78;100.00
6345;BME280;3205;42.666;23.264;2023-03-18T01:50:42;94661.53;;;-0.79;100.00
6345;BME280;3205;42.666;23.264;2023-03-18T01:53:12;94655.59;;;-0.75;100.00
6345;BME280;3205;42.666;23.264;2023-03-18T01:55:39;94658.44;;;-0.81;100.00
6345;BME280;3205;42.666;23.264;2023-03-18T01:58:09;94657.38;;;-0.80;100.00
6345;BME280;3205;42.666;23.264;2023-03-18T02:00:42;94655.06;;;-0.82;100.00
6345;BME280;3205;42.666;23.264;2023-03-18T02:03:10;94653.25;;;-0.76;100.00
6345;BME280;3205;42.666;23.264;2023-03-18T02:05:39;94648.84;;;-0.76;100.00
6345;BME280;3205;42.666;23.264;2023-03-18T02:08:07;94647.53;;;-0.74;100.00
6345;BME280;3205;42.666;23.264;2023-03-18T02:10:36;94652.75;;;-0.69;100.00
6345;BME280;3205;42.666;23.264;2023-03-18T02:13:04;94646.28;;;-0.66;100.00
6345;BME280;3205;42.666;23.264;2023-03-18T02:15:31;94645.75;;;-0.73;100.00
6345;BME280;3205;42.666;23.264;2023-03-18T02:18:02;94643.38;;;-0.75;100.00
6345;BME280;3205;42.666;23.264;2023-03-18T02:20:43;94645.97;;;-0.75;100.00
6345;BME280;3205;42.666;23.264;2023-03-18T02:23:18;94642.63;;;-0.80;100.00
6345;BME280;3205;42.666;23.264;2023-03-18T02:25:52;94643.13;;;-0.83;100.00
6345;BME280;3205;42.666;23.264;2023-03-18T02:28:23;94646.25;;;-0.81;100.00
6345;BME280;3205;42.666;23.264;2023-03-18T02:30:54;94641.06;;;-0.86;100.00
6345;BME280;3205;42.666;23.264;2023-03-18T02:33:23;94642.34;;;-0.88;100.00
6345;BME280;3205;42.666;23.264;2023-03-18T02:35:56;94637.91;;;-0.93;100.00
6345;BME280;3205;42.666;23.264;2023-03-18T02:38:23;94640.75;;;-0.94;100.00
6345;BME280;3205;42.666;23.264;2023-03-18T02:40:49;94645.44;;;-0.96;100.00
6345;BME280;3205;42.666;23.264;2023-03-18T02:43:20;94645.16;;;-0.95;100.00
6345;BME280;3205;42.666;23.264;2023-03-18T02:45:57;94641.53;;;-0.99;100.00
6345;BME280;3205;42.666;23.264;2023-03-18T02:48:32;94645.91;;;-1.09;100.00
6345;BME280;3205;42.666;23.264;2023-03-18T02:50:59;94650.03;;;-1.13;100.00
6345;BME280;3205;42.666;23.264;2023-03-18T02:53:25;94649.00;;;-1.12;100.00
6345;BME280;3205;42.666;23.264;2023-03-18T02:55:52;94646.66;;;-1.09;100.00
6345;BME280;3205;42.666;23.264;2023-03-18T02:58:18;94650.81;;;-1.08;100.00
6345;BME280;3205;42.666;23.264;2023-03-18T03:00:44;94642.50;;;-1.20;100.00
6345;BME280;3205;42.666;23.264;2023-03-18T03:03:11;94644.81;;;-1.18;100.00
6345;BME280;3205;42.666;23.264;2023-03-18T03:05:37;94645.59;;;-1.18;100.00
6345;BME280;3205;42.666;23.264;2023-03-18T03:08:03;94647.69;;;-1.15;100.00
6345;BME280;3205;42.666;23.264;2023-03-18T03:10:29;94644.28;;;-1.20;100.00
6345;BME280;3205;42.666;23.264;2023-03-18T03:12:56;94642.50;;;-1.20;100.00
6345;BME280;3205;42.666;23.264;2023-03-18T03:15:22;94647.38;;;-1.28;100.00
6345;BME280;3205;42.666;23.264;2023-03-18T03:17:49;94641.94;;;-1.27;100.00
6345;BME280;3205;42.666;23.264;2023-03-18T03:20:16;94645.84;;;-1.24;100.00
6345;BME280;3205;42.666;23.264;2023-03-18T03:22:42;94643.72;;;-1.32;100.00
6345;BME280;3205;42.666;23.264;2023-03-18T03:25:09;94656.94;;;-1.34;100.00
6345;BME280;3205;42.666;23.264;2023-03-18T03:27:35;94648.66;;;-1.31;100.00
6345;BME280;3205;42.666;23.264;2023-03-18T03:30:03;94659.63;;;-1.19;100.00
6345;BME280;3205;42.666;23.264;2023-03-18T03:32:29;94659.34;;;-1.17;100.00
6345;BME280;3205;42.666;23.264;2023-03-18T03:34:56;94660.41;;;-1.13;100.00
6345;BME280;3205;42.666;23.264;2023-03-18T03:37:23;94655.47;;;-1.15;100.00
6345;BME280;3205;42.666;23.264;2023-03-18T03:39:49;94658.56;;;-1.18;100.00
6345;BME280;3205;42.666;23.264;2023-03-18T03:42:15;94659.91;;;-1.10;100.00
6345;BME280;3205;42.666;23.264;2023-03-18T03:44:42;94659.63;;;-1.09;100.00
6345;BME280;3205;42.666;23.264;2023-03-18T03:47:08;94665.09;;;-1.10;100.00
6345;BME280;3205;42.666;23.264;2023-03-18T03:49:34;94660.94;;;-1.11;100.00
6345;BME280;3205;42.666;23.264;2023-03-18T03:52:00;94664.28;;;-1.11;100.00
6345;BME280;3205;42.666;23.264;2023-03-18T03:54:27;94660.13;;;-1.12;100.00
6345;BME280;3205;42.666;23.264;2023-03-18T03:56:53;94662.16;;;-1.24;100.00
6345;BME280;3205;42.666;23.264;2023-03-18T03:59:19;94665.28;;;-1.22;100.00
6345;BME280;3205;42.666;23.264;2023-03-18T04:01:45;94667.63;;;-1.20;100.00
6345;BME280;3205;42.666;23.264;2023-03-18T04:04:11;94665.56;;;-1.18;100.00
6345;BME280;3205;42.666;23.264;2023-03-18T04:06:38;94663.72;;;-1.23;100.00
6345;BME280;3205;42.666;23.264;2023-03-18T04:09:04;94662.69;;;-1.22;100.00
6345;BME280;3205;42.666;23.264;2023-03-18T04:11:31;94670.75;;;-1.23;100.00
6345;BME280;3205;42.666;23.264;2023-03-18T04:13:57;94668.94;;;-1.18;100.00
6345;BME280;3205;42.666;23.264;2023-03-18T04:16:23;94673.06;;;-1.27;100.00
6345;BME280;3205;42.666;23.264;2023-03-18T04:18:49;94672.22;;;-1.37;100.00
6345;BME280;3205;42.666;23.264;2023-03-18T04:21:15;94682.06;;;-1.39;100.00
6345;BME280;3205;42.666;23.264;2023-03-18T04:23:41;94682.78;;;-1.48;100.00
6345;BME280;3205;42.666;23.264;2023-03-18T04:26:08;94688.72;;;-1.53;100.00
6345;BME280;3205;42.666;23.264;2023-03-18T04:28:35;94687.69;;;-1.52;100.00
6345;BME280;3205;42.666;23.264;2023-03-18T04:31:02;94682.00;;;-1.49;100.00
6345;BME280;3205;42.666;23.264;2023-03-18T04:33:28;94692.41;;;-1.44;100.00
6345;BME280;3205;42.666;23.264;2023-03-18T04:35:55;94695.09;;;-1.24;100.00
6345;BME280;3205;42.666;23.264;2023-03-18T04:38:22;94703.25;;;-1.06;100.00
6345;BME280;3205;42.666;23.264;2023-03-18T04:40:48;94705.03;;;-1.06;100.00
6345;BME280;3205;42.666;23.264;2023-03-18T04:43:15;94701.41;;;-1.10;100.00
6345;BME280;3205;42.666;23.264;2023-03-18T04:45:42;94705.50;;;-1.14;100.00
6345;BME280;3205;42.666;23.264;2023-03-18T04:48:08;94700.59;;;-1.11;100.00
6345;BME280;3205;42.666;23.264;2023-03-18T04:50:34;94700.59;;;-1.11;100.00
6345;BME280;3205;42.666;23.264;2023-03-18T04:53:00;94702.72;;;-0.98;100.00
6345;BME280;3205;42.666;23.264;2023-03-18T04:55:28;94706.41;;;-0.84;100.00
6345;BME280;3205;42.666;23.264;2023-03-18T04:57:54;94707.75;;;-0.72;100.00
6345;BME280;3205;42.666;23.264;2023-03-18T05:00:21;94702.63;;;-0.57;100.00
6345;BME280;3205;42.666;23.264;2023-03-18T05:02:48;94708.06;;;-0.53;100.00
6345;BME280;3205;42.666;23.264;2023-03-18T05:05:15;94710.19;;;-0.45;100.00
6345;BME280;3205;42.666;23.264;2023-03-18T05:07:41;94713.84;;;-0.21;100.00
6345;BME280;3205;42.666;23.264;2023-03-18T05:10:08;94717.22;;;-0.11;100.00
6345;BME280;3205;42.666;23.264;2023-03-18T05:12:35;94717.75;;;0.01;100.00
6345;BME280;3205;42.666;23.264;2023-03-18T05:15:02;94719.34;;;0.12;100.00
6345;BME280;3205;42.666;23.264;2023-03-18T05:17:29;94724.78;;;0.30;100.00
6345;BME280;3205;42.666;23.264;2023-03-18T05:19:55;94714.91;;;0.57;100.00
6345;BME280;3205;42.666;23.264;2023-03-18T05:22:22;94712.88;;;1.75;100.00
6345;BME280;3205;42.666;23.264;2023-03-18T05:24:49;94697.16;;;4.05;100.00
6345;BME280;3205;42.666;23.264;2023-03-18T05:27:16;94700.78;;;6.15;100.00
6345;BME280;3205;42.666;23.264;2023-03-18T05:29:43;94739.03;;;8.28;100.00
6345;BME280;3205;42.666;23.264;2023-03-18T05:32:10;94750.44;;;10.00;100.00
6345;BME280;3205;42.666;23.264;2023-03-18T05:34:38;94753.25;;;11.61;100.00
6345;BME280;3205;42.666;23.264;2023-03-18T05:37:07;94755.91;;;13.11;99.38
6345;BME280;3205;42.666;23.264;2023-03-18T05:39:34;94754.88;;;14.35;71.90
6345;BME280;3205;42.666;23.264;2023-03-18T05:42:01;94758.03;;;15.51;59.27
6345;BME280;3205;42.666;23.264;2023-03-18T05:44:29;94761.16;;;16.45;53.90
6345;BME280;3205;42.666;23.264;2023-03-18T05:46:55;94763.31;;;16.92;50.20
6345;BME280;3205;42.666;23.264;2023-03-18T05:49:22;94760.66;;;17.90;47.40
6345;BME280;3205;42.666;23.264;2023-03-18T05:51:49;94767.75;;;18.69;44.93
6345;BME280;3205;42.666;23.264;2023-03-18T05:54:16;94774.53;;;19.10;43.17
6345;BME280;3205;42.666;23.264;2023-03-18T05:56:42;94771.97;;;19.38;41.60
6345;BME280;3205;42.666;23.264;2023-03-18T05:59:10;94787.97;;;19.17;40.27
6345;BME280;3205;42.666;23.264;2023-03-18T06:01:37;94775.94;;;18.90;40.77
6345;BME280;3205;42.666;23.264;2023-03-18T06:04:03;94784.28;;;17.48;42.22
6345;BME280;3205;42.666;23.264;2023-03-18T06:06:30;94788.56;;;17.56;42.23
6345;BME280;3205;42.666;23.264;2023-03-18T06:08:56;94799.03;;;16.54;43.32
6345;BME280;3205;42.666;23.264;2023-03-18T06:11:23;94798.16;;;16.73;44.01
6345;BME280;3205;42.666;23.264;2023-03-18T06:13:49;94801.81;;;15.31;45.28
6345;BME280;3205;42.666;23.264;2023-03-18T06:16:16;94802.19;;;15.70;46.15
6345;BME280;3205;42.666;23.264;2023-03-18T06:18:42;94795.19;;;16.52;44.15
6345;BME280;3205;42.666;23.264;2023-03-18T06:21:09;94804.25;;;16.73;43.26
6345;BME280;3205;42.666;23.264;2023-03-18T06:23:35;94809.38;;;17.11;42.68
6345;BME280;3205;42.666;23.264;2023-03-18T06:26:02;94806.72;;;16.85;42.48
6345;BME280;3205;42.666;23.264;2023-03-18T06:28:29;94807.72;;;16.74;43.22
6345;BME280;3205;42.666;23.264;2023-03-18T06:30:56;94796.44;;;17.16;42.77
6345;BME280;3205;42.666;23.264;2023-03-18T06:33:22;94789.56;;;17.78;41.60
6345;BME280;3205;42.666;23.264;2023-03-18T06:35:48;94787.47;;;18.00;40.80
6345;BME280;3205;42.666;23.264;2023-03-18T06:38:14;94782.75;;;18.27;40.97
6345;BME280;3205;42.666;23.264;2023-03-18T06:40:41;94777.91;;;19.03;40.51
6345;BME280;3205;42.666;23.264;2023-03-18T06:43:07;94775.97;;;19.00;39.41
6345;BME280;3205;42.666;23.264;2023-03-18T06:45:34;94776.53;;;18.16;39.46
6345;BME280;3205;42.666;23.264;2023-03-18T06:48:01;94773.22;;;17.50;40.74
6345;BME280;3205;42.666;23.264;2023-03-18T06:50:28;94763.31;;;18.30;40.03
6345;BME280;3205;42.666;23.264;2023-03-18T06:52:54;94764.06;;;18.87;39.90
6345;BME280;3205;42.666;23.264;2023-03-18T06:55:21;94763.22;;;18.73;39.37
6345;BME280;3205;42.666;23.264;2023-03-18T06:57:47;94764.59;;;19.10;38.74
6345;BME280;3205;42.666;23.264;2023-03-18T07:00:14;94765.00;;;19.16;39.00
6345;BME280;3205;42.666;23.264;2023-03-18T07:02:42;94770.53;;;18.83;39.01
6345;BME280;3205;42.666;23.264;2023-03-18T07:05:08;94765.72;;;19.09;38.79
6345;BME280;3205;42.666;23.264;2023-03-18T07:07:34;94766.97;;;19.29;38.44
6345;BME280;3205;42.666;23.264;2023-03-18T07:10:02;94775.63;;;18.45;39.15
6345;BME280;3205;42.666;23.264;2023-03-18T07:12:28;94772.44;;;17.20;40.95
6345;BME280;3205;42.666;23.264;2023-03-18T07:14:54;94768.84;;;17.35;41.39
6345;BME280;3205;42.666;23.264;2023-03-18T07:17:21;94771.91;;;18.13;40.26
6345;BME280;3205;42.666;23.264;2023-03-18T07:19:48;94765.41;;;19.28;38.87
6345;BME280;3205;42.666;23.264;2023-03-18T07:22:14;94773.09;;;18.19;39.48
6345;BME280;3205;42.666;23.264;2023-03-18T07:24:41;94767.34;;;18.60;39.46
6345;BME280;3205;42.666;23.264;2023-03-18T07:27:08;94768.50;;;19.34;38.57
6345;BME280;3205;42.666;23.264;2023-03-18T07:29:35;94772.38;;;19.43;38.24
6345;BME280;3205;42.666;23.264;2023-03-18T07:32:01;94768.88;;;19.29;38.10
6345;BME280;3205;42.666;23.264;2023-03-18T07:34:28;94762.50;;;19.85;37.71
6345;BME280;3205;42.666;23.264;2023-03-18T07:36:55;94771.06;;;18.45;38.87
6345;BME280;3205;42.666;23.264;2023-03-18T07:39:23;94774.41;;;18.92;39.40
6345;BME280;3205;42.666;23.264;2023-03-18T07:41:49;94774.31;;;18.71;38.55
6345;BME280;3205;42.666;23.264;2023-03-18T07:44:16;94776.44;;;18.49;39.63
6345;BME280;3205;42.666;23.264;2023-03-18T07:46:42;94780.72;;;19.21;38.57
6345;BME280;3205;42.666;23.264;2023-03-18T07:49:09;94780.84;;;18.77;39.46
6345;BME280;3205;42.666;23.264;2023-03-18T07:51:35;94787.97;;;17.37;40.63
6345;BME280;3205;42.666;23.264;2023-03-18T07:54:02;94780.97;;;17.62;40.92
6345;BME280;3205;42.666;23.264;2023-03-18T07:56:29;94779.94;;;18.60;40.28
6345;BME280;3205;42.666;23.264;2023-03-18T07:58:55;94782.28;;;19.29;39.32
6345;BME280;3205;42.666;23.264;2023-03-18T08:01:21;94774.47;;;20.78;37.66
6345;BME280;3205;42.666;23.264;2023-03-18T08:03:47;94778.31;;;20.56;37.32
6345;BME280;3205;42.666;23.264;2023-03-18T08:06:14;94776.75;;;20.90;36.38
6345;BME280;3205;42.666;23.264;2023-03-18T08:08:40;94785.78;;;21.45;35.50
6345;BME280;3205;42.666;23.264;2023-03-18T08:11:07;94776.84;;;21.75;34.43
6345;BME280;3205;42.666;23.264;2023-03-18T08:13:35;94776.94;;;21.58;34.00
6345;BME280;3205;42.666;23.264;2023-03-18T08:16:01;94774.38;;;22.56;34.08
6345;BME280;3205;42.666;23.264;2023-03-18T08:18:28;94767.16;;;23.90;32.25
6345;BME280;3205;42.666;23.264;2023-03-18T08:20:54;94764.94;;;24.60;31.38
6345;BME280;3205;42.666;23.264;2023-03-18T08:23:21;94764.81;;;24.90;30.71
6345;BME280;3205;42.666;23.264;2023-03-18T08:25:48;94765.69;;;26.03;29.82
6345;BME280;3205;42.666;23.264;2023-03-18T08:28:16;94775.50;;;25.20;29.98
6345;BME280;3205;42.666;23.264;2023-03-18T08:30:43;94773.63;;;22.01;32.57
6345;BME280;3205;42.666;23.264;2023-03-18T08:33:09;94783.97;;;19.82;35.58
6345;BME280;3205;42.666;23.264;2023-03-18T08:35:36;94795.28;;;18.16;37.64
6345;BME280;3205;42.666;23.264;2023-03-18T08:38:04;94776.75;;;17.97;38.66
6345;BME280;3205;42.666;23.264;2023-03-18T08:40:31;94775.72;;;16.77;40.11
6345;BME280;3205;42.666;23.264;2023-03-18T08:42:59;94768.97;;;17.45;39.88
6345;BME280;3205;42.666;23.264;2023-03-18T08:45:27;94767.09;;;18.86;38.54
6345;BME280;3205;42.666;23.264;2023-03-18T08:47:54;94770.63;;;20.23;36.27
6345;BME280;3205;42.666;23.264;2023-03-18T08:50:21;94775.19;;;20.92;35.49
6345;BME280;3205;42.666;23.264;2023-03-18T08:52:53;94778.06;;;21.61;34.45
6345;BME280;3205;42.666;23.264;2023-03-18T08:55:21;94776.63;;;22.14;33.90
6345;BME280;3205;42.666;23.264;2023-03-18T08:57:49;94787.53;;;22.94;32.63
6345;BME280;3205;42.666;23.264;2023-03-18T09:00:16;94781.16;;;22.24;32.93
6345;BME280;3205;42.666;23.264;2023-03-18T09:02:43;94782.06;;;23.05;32.38
6345;BME280;3205;42.666;23.264;2023-03-18T09:05:09;94787.38;;;23.12;32.53
6345;BME280;3205;42.666;23.264;2023-03-18T09:07:36;94778.34;;;23.25;31.67
6345;BME280;3205;42.666;23.264;2023-03-18T09:10:02;94777.78;;;23.40;31.78
6345;BME280;3205;42.666;23.264;2023-03-18T09:12:28;94782.28;;;22.26;32.28
6345;BME280;3205;42.666;23.264;2023-03-18T09:14:55;94779.34;;;21.28;33.51
6345;BME280;3205;42.666;23.264;2023-03-18T09:17:21;94787.88;;;20.68;33.15
6345;BME280;3205;42.666;23.264;2023-03-18T09:19:48;94781.91;;;22.28;31.69
6345;BME280;3205;42.666;23.264;2023-03-18T09:22:15;94778.84;;;21.61;31.93
6345;BME280;3205;42.666;23.264;2023-03-18T09:24:42;94782.50;;;20.99;32.81
6345;BME280;3205;42.666;23.264;2023-03-18T09:27:08;94780.63;;;22.46;31.89
6345;BME280;3205;42.666;23.264;2023-03-18T09:29:35;94781.81;;;23.25;30.18
6345;BME280;3205;42.666;23.264;2023-03-18T09:32:01;94782.00;;;23.08;30.91
6345;BME280;3205;42.666;23.264;2023-03-18T09:34:27;94787.03;;;22.62;30.39
6345;BME280;3205;42.666;23.264;2023-03-18T09:36:54;94782.09;;;22.54;30.88
6345;BME280;3205;42.666;23.264;2023-03-18T09:39:22;94778.59;;;22.03;31.16
6345;BME280;3205;42.666;23.264;2023-03-18T09:42:01;94784.63;;;18.73;31.43
6345;BME280;3205;42.666;23.264;2023-03-18T09:44:31;94776.38;;;18.42;33.13
6345;BME280;3205;42.666;23.264;2023-03-18T09:47:10;94789.16;;;16.58;34.07
6345;BME280;3205;42.666;23.264;2023-03-18T09:49:48;94773.94;;;14.72;38.17
6345;BME280;3205;42.666;23.264;2023-03-18T09:52:23;94766.75;;;14.57;38.35
6345;BME280;3205;42.666;23.264;2023-03-18T09:54:55;94773.16;;;14.06;38.92
6345;BME280;3205;42.666;23.264;2023-03-18T09:57:26;94779.78;;;11.41;44.00
6345;BME280;3205;42.666;23.264;2023-03-18T09:59:58;94779.53;;;11.02;46.17
6345;BME280;3205;42.666;23.264;2023-03-18T10:02:32;94773.75;;;10.67;47.34
6345;BME280;3205;42.666;23.264;2023-03-18T10:05:03;94766.97;;;11.43;46.95
6345;BME280;3205;42.666;23.264;2023-03-18T10:07:33;94773.31;;;11.62;46.66
6345;BME280;3205;42.666;23.264;2023-03-18T10:10:05;94767.66;;;11.19;47.68
6345;BME280;3205;42.666;23.264;2023-03-18T10:12:34;94771.44;;;10.17;50.18
6345;BME280;3205;42.666;23.264;2023-03-18T10:15:20;94771.94;;;10.80;49.37
6345;BME280;3205;42.666;23.264;2023-03-18T10:17:53;94759.66;;;10.96;48.67
6345;BME280;3205;42.666;23.264;2023-03-18T10:20:28;94776.03;;;11.09;49.51
6345;BME280;3205;42.666;23.264;2023-03-18T10:23:09;94769.56;;;11.19;49.51
6345;BME280;3205;42.666;23.264;2023-03-18T10:25:39;94784.88;;;10.32;47.69
6345;BME280;3205;42.666;23.264;2023-03-18T10:28:45;94774.88;;;9.80;48.90
6345;BME280;3205;42.666;23.264;2023-03-18T10:31:25;94760.22;;;9.91;49.57
6345;BME280;3205;42.666;23.264;2023-03-18T10:33:57;94762.53;;;10.50;48.86
6345;BME280;3205;42.666;23.264;2023-03-18T10:36:27;94761.31;;;10.47;50.04
6345;BME280;3205;42.666;23.264;2023-03-18T10:38:58;94759.34;;;10.16;50.96
6345;BME280;3205;42.666;23.264;2023-03-18T10:41:30;94759.34;;;10.16;47.80
6345;BME280;3205;42.666;23.264;2023-03-18T10:44:01;94767.81;;;10.50;46.00
6345;BME280;3205;42.666;23.264;2023-03-18T10:46:29;94767.69;;;10.67;45.04
6345;BME280;3205;42.666;23.264;2023-03-18T10:49:01;94767.84;;;10.82;46.51
6345;BME280;3205;42.666;23.264;2023-03-18T10:51:38;94770.91;;;9.65;50.41
6345;BME280;3205;42.666;23.264;2023-03-18T10:54:11;94764.56;;;9.58;52.00
6345;BME280;3205;42.666;23.264;2023-03-18T10:56:38;94749.66;;;9.91;50.99
6345;BME280;3205;42.666;23.264;2023-03-18T10:59:11;94753.78;;;10.09;48.49
6345;BME280;3205;42.666;23.264;2023-03-18T11:01:40;94756.47;;;9.63;47.34
6345;BME280;3205;42.666;23.264;2023-03-18T11:04:11;94758.81;;;9.56;47.17
6345;BME280;3205;42.666;23.264;2023-03-18T11:06:43;94754.41;;;9.31;47.40
6345;BME280;3205;42.666;23.264;2023-03-18T11:09:15;94753.09;;;9.54;47.29
6345;BME280;3205;42.666;23.264;2023-03-18T11:11:42;94747.50;;;9.93;47.79
6345;BME280;3205;42.666;23.264;2023-03-18T11:14:13;94750.09;;;10.01;47.92
6345;BME280;3205;42.666;23.264;2023-03-18T11:16:46;94746.47;;;9.40;53.93
6345;BME280;3205;42.666;23.264;2023-03-18T11:19:29;94751.22;;;9.00;57.68
6345;BME280;3205;42.666;23.264;2023-03-18T11:22:02;94750.03;;;8.81;57.71
6345;BME280;3205;42.666;23.264;2023-03-18T11:24:30;94749.88;;;8.78;58.51
6345;BME280;3205;42.666;23.264;2023-03-18T11:27:21;94754.84;;;8.71;58.02
6345;BME280;3205;42.666;23.264;2023-03-18T11:29:52;94755.63;;;8.63;57.57
6345;BME280;3205;42.666;23.264;2023-03-18T11:32:23;94742.59;;;8.49;57.89
6345;BME280;3205;42.666;23.264;2023-03-18T11:34:53;94747.84;;;8.49;55.74
6345;BME280;3205;42.666;23.264;2023-03-18T11:37:26;94742.75;;;8.53;55.61
6345;BME280;3205;42.666;23.264;2023-03-18T11:42:47;94752.81;;;8.68;51.42
6345;BME280;3205;42.666;23.264;2023-03-18T11:45:41;94736.69;;;8.78;51.58
6345;BME280;3205;42.666;23.264;2023-03-18T11:48:14;94746.53;;;9.14;50.15
6345;BME280;3205;42.666;23.264;2023-03-18T11:50:52;94734.22;;;9.35;50.01
6345;BME280;3205;42.666;23.264;2023-03-18T11:53:25;94751.34;;;9.21;49.60
6345;BME280;3205;42.666;23.264;2023-03-18T11:55:59;94736.78;;;9.06;50.70
6345;BME280;3205;42.666;23.264;2023-03-18T11:58:41;94735.31;;;9.34;51.89
6345;BME280;3205;42.666;23.264;2023-03-18T12:01:18;94747.88;;;9.37;50.22
6345;BME280;3205;42.666;23.264;2023-03-18T12:07:02;94734.97;;;8.82;49.56
6345;BME280;3205;42.666;23.264;2023-03-18T12:09:36;94740.56;;;8.88;49.49
6345;BME280;3205;42.666;23.264;2023-03-18T12:12:16;94743.66;;;8.90;47.46
6345;BME280;3205;42.666;23.264;2023-03-18T12:14:52;94749.53;;;8.96;48.25
6345;BME280;3205;42.666;23.264;2023-03-18T12:17:28;94742.84;;;9.07;48.59
6345;BME280;3205;42.666;23.264;2023-03-18T12:20:22;94744.88;;;8.93;47.93
6345;BME280;3205;42.666;23.264;2023-03-18T12:23:02;94752.91;;;9.22;50.31
6345;BME280;3205;42.666;23.264;2023-03-18T12:25:37;94741.56;;;9.21;51.12
6345;BME280;3205;42.666;23.264;2023-03-18T12:28:15;94740.38;;;8.93;50.00
6345;BME280;3205;42.666;23.264;2023-03-18T12:30:55;94737.75;;;8.85;51.13
6345;BME280;3205;42.666;23.264;2023-03-18T12:33:34;94733.47;;;8.64;51.31
6345;BME280;3205;42.666;23.264;2023-03-18T12:36:12;94729.09;;;8.68;52.46
6345;BME280;3205;42.666;23.264;2023-03-18T12:39:00;94734.16;;;8.98;51.58
6345;BME280;3205;42.666;23.264;2023-03-18T12:41:35;94755.13;;;8.69;49.19
6345;BME280;3205;42.666;23.264;2023-03-18T12:44:18;94735.00;;;8.73;49.21
6345;BME280;3205;42.666;23.264;2023-03-18T12:46:51;94734.06;;;8.69;49.59
6345;BME280;3205;42.666;23.264;2023-03-18T12:49:22;94728.16;;;8.72;49.91
6345;BME280;3205;42.666;23.264;2023-03-18T12:51:56;94730.97;;;8.76;48.68
6345;BME280;3205;42.666;23.264;2023-03-18T12:54:26;94730.00;;;8.88;47.77
6345;BME280;3205;42.666;23.264;2023-03-18T12:56:57;94729.25;;;8.80;48.50
6345;BME280;3205;42.666;23.264;2023-03-18T12:59:30;94743.91;;;9.14;47.68
6345;BME280;3205;42.666;23.264;2023-03-18T13:02:13;94729.16;;;9.22;48.42
6345;BME280;3205;42.666;23.264;2023-03-18T13:04:48;94711.50;;;9.51;48.28
6345;BME280;3205;42.666;23.264;2023-03-18T13:07:20;94724.03;;;9.62;49.12
6345;BME280;3205;42.666;23.264;2023-03-18T13:09:53;94718.63;;;9.59;48.64
6345;BME280;3205;42.666;23.264;2023-03-18T13:12:25;94730.97;;;9.38;48.73
6345;BME280;3205;42.666;23.264;2023-03-18T13:14:58;94750.25;;;9.22;49.23
6345;BME280;3205;42.666;23.264;2023-03-18T13:17:28;94734.16;;;8.98;49.95
6345;BME280;3205;42.666;23.264;2023-03-18T13:19:57;94730.72;;;9.14;49.35
6345;BME280;3205;42.666;23.264;2023-03-18T13:25:33;94729.47;;;9.57;48.69